Time;durP1;ratioP1;P1;durP2;ratioP2;P2;SDS_P1;SDS_P2;PMS_P1;PMS_P2;Temp;Humidity;BMP_temperature;BMP_pressure;BME280_temperature;BME280_humidity;BME280_pressure;Samples;Min_cycle;Max_cycle;Signal;HPM_P1;HPM_P2
2022/12/12 00:02:07;;;;;;;3.08;2.33;;;;;;;9.02;100.00;98399.47;5070036;28;20032;-68
2022/12/12 00:04:33;;;;;;;5.25;3.17;;;;;;;9.28;100.00;98459.91;5070294;28;20467;-68
2022/12/12 00:06:58;;;;;;;3.65;2.13;;;;;;;9.20;100.00;98472.09;5069198;28;20039;-68
2022/12/12 00:09:23;;;;;;;5.15;2.80;;;;;;;9.10;100.00;98453.16;5068532;28;20466;-67
2022/12/12 00:11:49;;;;;;;3.05;2.00;;;;;;;8.67;100.00;98482.16;5069754;28;20032;-68
2022/12/12 00:14:14;;;;;;;7.82;5.40;;;;;;;9.43;100.00;98542.84;5069901;28;20029;-73
2022/12/12 00:16:40;;;;;;;4.43;3.08;;;;;;;9.49;100.00;98561.16;5069694;28;20067;-68
2022/12/12 00:19:05;;;;;;;5.22;2.50;;;;;;;9.36;100.00;98499.22;5069994;28;20028;-68
2022/12/12 00:21:30;;;;;;;5.82;4.20;;;;;;;9.49;100.00;98567.94;5069145;28;20388;-67
2022/12/12 00:23:56;;;;;;;4.63;3.35;;;;;;;9.70;100.00;98544.09;5069769;28;20036;-68
2022/12/12 00:26:30;;;;;;;5.75;4.10;;;;;;;9.63;100.00;98558.78;5068760;28;20029;-68
2022/12/12 00:28:57;;;;;;;5.72;4.18;;;;;;;9.11;100.00;98496.16;5069199;28;20036;-68
2022/12/12 00:31:22;;;;;;;4.85;3.47;;;;;;;8.93;100.00;98476.75;5069946;28;20119;-68
2022/12/12 00:33:49;;;;;;;5.60;3.33;;;;;;;9.10;100.00;98497.06;5069742;28;20119;-68
2022/12/12 00:36:20;;;;;;;9.00;5.55;;;;;;;8.39;100.00;98447.13;5069725;28;20033;-68
2022/12/12 00:38:47;;;;;;;16.27;9.20;;;;;;;8.88;100.00;98491.31;5069937;28;20498;-67
2022/12/12 00:41:12;;;;;;;11.88;7.97;;;;;;;8.91;100.00;98515.72;5069795;28;20036;-68
2022/12/12 00:43:37;;;;;;;6.55;4.63;;;;;;;9.14;100.00;98605.03;5069685;28;20029;-68
2022/12/12 00:46:03;;;;;;;7.15;4.35;;;;;;;9.21;100.00;98553.16;5068253;28;20033;-68
2022/12/12 00:48:29;;;;;;;7.50;3.90;;;;;;;8.70;100.00;98528.44;5069419;28;20538;-68
2022/12/12 00:50:55;;;;;;;6.38;3.92;;;;;;;9.50;100.00;98608.47;5069300;28;20047;-68
2022/12/12 00:53:21;;;;;;;10.20;6.03;;;;;;;8.53;100.00;98500.50;5069198;28;20554;-67
2022/12/12 00:55:57;;;;;;;6.60;4.35;;;;;;;8.54;100.00;98506.38;5085087;28;20032;-67
2022/12/12 00:58:23;;;;;;;7.68;3.88;;;;;;;9.34;100.00;98609.22;5085169;28;20028;-67
2022/12/12 01:00:49;;;;;;;12.40;7.18;;;;;;;8.71;100.00;98514.88;5069382;28;20060;-68
2022/12/12 01:03:14;;;;;;;25.63;15.40;;;;;;;8.50;100.00;98495.56;5068816;28;20047;-68
2022/12/12 01:05:40;;;;;;;21.15;12.50;;;;;;;8.65;100.00;98529.53;5067969;28;20031;-67
2022/12/12 01:08:05;;;;;;;18.88;11.90;;;;;;;8.80;100.00;98601.50;5069369;28;20441;-68
2022/12/12 01:10:31;;;;;;;17.75;11.40;;;;;;;8.57;100.00;98514.69;5069496;28;20032;-67
2022/12/12 01:12:56;;;;;;;17.42;11.07;;;;;;;8.34;100.00;98433.03;5068147;28;20032;-68
2022/12/12 01:15:22;;;;;;;15.70;11.02;;;;;;;8.51;100.00;98499.75;5069188;28;20097;-67
2022/12/12 01:17:47;;;;;;;13.40;9.27;;;;;;;8.54;100.00;98532.53;5067926;28;20039;-68
2022/12/12 01:20:19;;;;;;;13.68;8.30;;;;;;;8.31;100.00;98504.84;5067689;28;20036;-68
2022/12/12 01:22:44;;;;;;;;;;;;;;;8.74;100.00;98608.47;5069922;28;20032;-67
2022/12/12 01:25:12;;;;;;;11.63;8.32;;;;;;;8.82;100.00;98580.28;5069242;28;19909;-67
2022/12/12 01:27:38;;;;;;;7.20;4.95;;;;;;;8.31;100.00;98554.66;5068963;28;20414;-68
2022/12/12 01:30:05;;;;;;;6.50;4.82;;;;;;;8.82;100.00;98603.09;5069209;28;20032;-68
2022/12/12 01:32:33;;;;;;;3.30;2.40;;;;;;;8.72;100.00;98586.63;5069754;28;20032;-68
2022/12/12 01:34:59;;;;;;;2.60;2.10;;;;;;;8.93;100.00;98626.25;5073209;28;20020;-68
2022/12/12 01:37:24;;;;;;;2.95;1.45;;;;;;;8.55;100.00;98562.03;5072479;28;20046;-67
2022/12/12 01:39:50;;;;;;;2.00;1.50;;;;;;;8.92;100.00;98639.81;5072723;28;20054;-67
2022/12/12 01:42:18;;;;;;;2.20;1.80;;;;;;;9.06;100.00;98632.44;5071177;28;20029;-68
2022/12/12 01:44:47;;;;;;;1.75;1.40;;;;;;;8.70;100.00;98593.47;5072917;28;20028;-67
2022/12/12 01:47:15;;;;;;;2.72;1.13;;;;;;;8.60;100.00;98623.44;5072383;28;20047;-67
2022/12/12 01:49:45;;;;;;;1.80;1.23;;;;;;;9.10;100.00;98654.22;5072679;28;20100;-68
2022/12/12 01:52:25;;;;;;;1.30;1.00;;;;;;;9.24;100.00;98667.13;5071077;28;20025;-68
2022/12/12 01:54:55;;;;;;;1.38;1.00;;;;;;;8.94;100.00;98660.84;5068035;28;20115;-67
2022/12/12 01:57:26;;;;;;;1.95;1.00;;;;;;;9.14;100.00;98660.81;5087822;28;20040;-67
2022/12/12 01:59:52;;;;;;;1.65;1.08;;;;;;;9.24;100.00;98648.53;5072097;28;20063;-67
2022/12/12 02:02:18;;;;;;;1.58;1.20;;;;;;;8.87;100.00;98674.66;5071801;28;20059;-67
2022/12/12 02:04:43;;;;;;;1.02;0.93;;;;;;;8.61;100.00;98630.16;5071787;28;20037;-68
2022/12/12 02:07:09;;;;;;;1.65;0.90;;;;;;;8.57;100.00;98593.19;5072004;28;20046;-67
2022/12/12 02:09:36;;;;;;;1.38;0.70;;;;;;;8.71;100.00;98623.78;5071767;28;20029;-67
2022/12/12 02:12:01;;;;;;;1.00;0.82;;;;;;;9.23;100.00;98710.31;5072033;28;20116;-67
2022/12/12 02:14:37;;;;;;;1.63;0.90;;;;;;;9.35;100.00;98684.38;5071319;28;20111;-69
2022/12/12 02:17:20;;;;;;;1.58;1.10;;;;;;;9.14;100.00;98708.97;5070739;28;20139;-67
2022/12/12 02:20:11;;;;;;;1.63;1.15;;;;;;;9.16;100.00;98697.06;5071900;28;20502;-67
2022/12/12 02:22:42;;;;;;;1.40;1.00;;;;;;;9.53;100.00;98704.69;5071656;28;20036;-68
2022/12/12 02:25:41;;;;;;;1.58;1.10;;;;;;;9.35;100.00;98712.28;5071655;28;20036;-68
2022/12/12 02:28:20;;;;;;;1.38;0.88;;;;;;;9.33;100.00;98704.75;5071718;28;20074;-67
2022/12/12 02:31:17;;;;;;;1.30;1.13;;;;;;;9.11;100.00;98720.97;5071490;28;20028;-67
2022/12/12 02:33:57;;;;;;;1.10;0.93;;;;;;;9.60;100.00;98738.25;5071597;28;20032;-67
2022/12/12 02:36:42;;;;;;;6.13;4.47;;;;;;;9.21;100.00;98732.34;5072727;28;20036;-68
2022/12/12 02:39:44;;;;;;;3.67;2.67;;;;;;;8.59;100.00;98723.13;5074709;28;20027;-68
2022/12/12 02:42:21;;;;;;;2.35;1.80;;;;;;;8.18;100.00;98670.72;5090244;28;20109;-68
2022/12/12 02:45:04;;;;;;;1.98;1.65;;;;;;;8.66;100.00;98718.59;5091480;28;20044;-68
2022/12/12 02:47:33;;;;;;;3.55;2.60;;;;;;;8.23;100.00;98595.44;5091560;28;20032;-68
2022/12/12 02:50:07;;;;;;;5.05;3.55;;;;;;;8.77;100.00;98702.97;5092004;28;20084;-67
2022/12/12 02:52:33;;;;;;;2.60;1.80;;;;;;;8.31;100.00;98641.53;5091730;28;20039;-68
2022/12/12 02:54:59;;;;;;;3.13;1.60;;;;;;;8.48;100.00;98653.50;5089973;28;20050;-68
2022/12/12 02:57:26;;;;;;;2.53;1.88;;;;;;;8.70;100.00;98697.34;5091759;28;20495;-68
2022/12/12 03:00:00;;;;;;;3.13;2.20;;;;;;;8.19;100.00;98604.03;5089890;28;20090;-68
2022/12/12 03:07:45;;;;;;;3.85;2.33;;;;;;;8.56;100.00;98718.16;5091151;28;20491;-68
2022/12/12 03:08:57;;;;;;;4.30;3.17;;;;;;;8.56;100.00;98719.84;5090369;28;20139;-69
2022/12/12 03:11:32;;;;;;;3.95;2.75;;;;;;;8.75;100.00;98686.13;5106697;28;20031;-67
2022/12/12 03:14:16;;;;;;;3.35;2.00;;;;;;;8.59;100.00;98695.25;5091225;28;20023;-68
2022/12/12 03:16:47;;;;;;;2.85;1.25;;;;;;;8.59;100.00;98702.84;5091473;28;20085;-68
2022/12/12 03:19:32;;;;;;;3.30;1.50;;;;;;;8.34;100.00;98661.66;5091026;28;20413;-68
2022/12/12 03:22:24;;;;;;;3.33;1.70;;;;;;;8.59;100.00;98710.44;5089633;28;20031;-69
2022/12/12 03:25:16;;;;;;;1.90;1.27;;;;;;;8.69;100.00;98713.44;5090886;28;20513;-69
2022/12/12 03:28:02;;;;;;;3.22;1.83;;;;;;;8.59;100.00;98710.44;5085027;28;20464;-69
2022/12/12 03:30:34;;;;;;;2.10;1.77;;;;;;;7.85;100.00;98647.56;5075405;28;20021;-68
2022/12/12 03:33:10;;;;;;;5.05;2.17;;;;;;;8.01;100.00;98657.91;5077604;28;20550;-68
2022/12/12 03:35:41;;;;;;;5.18;4.13;;;;;;;7.82;100.00;98655.25;5090751;28;20032;-68
2022/12/12 03:38:24;;;;;;;4.47;3.78;;;;;;;7.62;100.00;98641.75;5090957;28;20036;-67
2022/12/12 03:40:59;;;;;;;5.25;3.88;;;;;;;8.08;100.00;98758.00;5090839;28;20039;-68
2022/12/12 03:43:32;;;;;;;4.10;2.72;;;;;;;8.11;100.00;98750.31;5089152;28;20065;-68
2022/12/12 03:46:12;;;;;;;2.10;1.48;;;;;;;7.20;100.00;98583.50;5090315;28;20089;-68
2022/12/12 03:48:55;;;;;;;2.42;1.50;;;;;;;8.45;100.00;98758.28;5090807;28;20035;-69
2022/12/12 03:51:30;;;;;;;1.73;1.40;;;;;;;7.60;100.00;98646.03;5090742;28;20039;-69
2022/12/12 03:53:59;;;;;;;1.60;1.20;;;;;;;8.29;100.00;98734.44;5090422;28;20024;-68
2022/12/12 03:56:33;;;;;;;2.47;1.60;;;;;;;8.52;100.00;98736.88;5088235;28;20399;-68
2022/12/12 03:59:07;;;;;;;1.38;1.13;;;;;;;8.59;100.00;98750.97;5090668;28;20115;-68
2022/12/12 04:01:45;;;;;;;2.35;1.50;;;;;;;7.89;100.00;98633.91;5088816;28;20051;-68
2022/12/12 04:04:19;;;;;;;1.73;0.90;;;;;;;8.39;100.00;98710.44;5091077;28;20032;-67
2022/12/12 04:06:52;;;;;;;0.90;0.77;;;;;;;8.35;100.00;98657.44;5090529;28;20379;-69
2022/12/12 04:15:32;;;;;;;1.35;0.88;;;;;;;9.31;100.00;98767.38;5067542;28;20462;-68
2022/12/12 04:18:01;;;;;;;1.88;1.10;;;;;;;9.34;100.00;98774.03;5064040;28;20117;-69
2022/12/12 04:23:46;;;;;;;3.35;2.20;;;;;;;8.59;100.00;98702.84;5075099;28;20051;-67
2022/12/12 04:26:38;;;;;;;2.42;2.13;;;;;;;8.64;100.00;98693.34;5090198;28;20077;-68
2022/12/12 04:29:06;;;;;;;;;;;;;;;9.23;100.00;98791.44;5065776;28;20025;-69
2022/12/12 04:31:37;;;;;;;2.13;0.95;;;;;;;9.20;100.00;98777.16;5064644;28;20283;-68
2022/12/12 04:34:09;;;;;;;1.33;1.10;;;;;;;9.29;100.00;98798.78;5048112;28;20386;-69
2022/12/12 04:36:34;;;;;;;;;;;;;;;9.27;100.00;98796.28;5050611;28;20036;-68
2022/12/12 04:39:02;;;;;;;2.30;1.70;;;;;;;8.96;100.00;98773.09;5048964;28;19912;-67
2022/12/12 04:41:32;;;;;;;1.23;1.10;;;;;;;8.80;100.00;98716.34;5049162;28;20040;-69
2022/12/12 04:44:00;;;;;;;2.92;2.40;;;;;;;8.58;100.00;98756.91;5065102;28;20443;-69
2022/12/12 04:46:29;;;;;;;2.67;1.98;;;;;;;8.70;100.00;98758.97;5049159;28;20471;-69
2022/12/12 04:49:01;;;;;;;1.50;1.20;;;;;;;8.49;100.00;98696.50;5048188;28;20150;-69
2022/12/12 04:51:33;;;;;;;3.67;2.20;;;;;;;8.58;100.00;98751.84;5049259;28;20155;-70
2022/12/12 04:54:09;;;;;;;2.35;1.70;;;;;;;8.55;100.00;98769.72;5049403;28;20119;-69
2022/12/12 04:56:38;;;;;;;3.97;2.83;;;;;;;8.63;100.00;98775.31;5049364;28;20025;-68
2022/12/12 04:59:08;;;;;;;3.70;2.90;;;;;;;8.21;100.00;98690.84;5049414;28;20033;-68
2022/12/12 05:01:42;;;;;;;2.00;1.48;;;;;;;8.63;100.00;98762.63;5049351;28;20053;-69
2022/12/12 05:04:16;;;;;;;5.03;1.70;;;;;;;8.28;100.00;98702.41;5049263;28;20056;-69
2022/12/12 05:06:46;;;;;;;3.90;3.10;;;;;;;8.65;100.00;98760.03;5049926;28;20094;-69
2022/12/12 05:09:14;;;;;;;4.85;3.20;;;;;;;8.48;100.00;98722.72;5053626;28;20029;-68
2022/12/12 05:11:41;;;;;;;4.63;3.45;;;;;;;8.71;100.00;98775.00;5053268;28;20044;-69
2022/12/12 05:14:08;;;;;;;6.00;4.03;;;;;;;8.32;100.00;98690.47;5052301;28;20584;-69
2022/12/12 05:16:51;;;;;;;17.40;9.00;;;;;;;8.25;100.00;98663.75;5068268;28;20472;-69
2022/12/12 05:19:16;;;;;;;12.88;6.13;;;;;;;8.07;100.00;98677.91;5052975;28;20035;-70
2022/12/12 05:21:42;;;;;;;20.20;9.20;;;;;;;8.50;100.00;98769.06;5059595;28;20029;-69
2022/12/12 05:24:07;;;;;;;5.68;3.83;;;;;;;7.97;100.00;98660.63;5070617;28;20024;-69
2022/12/12 05:26:33;;;;;;;9.18;4.78;;;;;;;8.35;100.00;98723.25;5072882;28;20027;-69
2022/12/12 05:29:01;;;;;;;25.17;11.35;;;;;;;8.44;100.00;98728.78;5072304;28;20036;-69
2022/12/12 05:31:27;;;;;;;33.17;14.02;;;;;;;8.05;100.00;98663.66;5073031;28;20035;-69
2022/12/12 05:33:52;;;;;;;8.45;5.03;;;;;;;8.15;100.00;98670.84;5072997;28;20119;-69
2022/12/12 05:36:18;;;;;;;5.63;4.00;;;;;;;8.19;100.00;98648.75;5087508;28;20060;-68
2022/12/12 05:38:44;;;;;;;7.38;5.13;;;;;;;8.62;100.00;98740.72;5072099;28;20036;-68
2022/12/12 05:41:10;;;;;;;10.27;7.63;;;;;;;8.37;100.00;98696.16;5073175;28;20033;-69
2022/12/12 05:43:36;;;;;;;7.22;6.13;;;;;;;8.68;100.00;98778.47;5073667;28;20036;-68
2022/12/12 05:46:02;;;;;;;7.97;6.53;;;;;;;8.55;100.00;98749.44;5067443;28;20106;-68
2022/12/12 05:48:28;;;;;;;6.82;4.93;;;;;;;8.64;100.00;98764.28;5071847;28;20056;-69
2022/12/12 05:50:54;;;;;;;6.05;5.13;;;;;;;8.92;100.00;98776.66;5071802;28;20067;-70
2022/12/12 05:53:20;;;;;;;5.32;3.63;;;;;;;8.86;100.00;98765.94;5070822;28;20039;-70
2022/12/12 05:55:45;;;;;;;7.75;3.92;;;;;;;8.73;100.00;98801.09;5072563;28;20024;-70
2022/12/12 05:58:11;;;;;;;5.65;4.13;;;;;;;8.37;100.00;98714.72;5071978;28;20028;-70
2022/12/12 06:00:37;;;;;;;6.75;4.10;;;;;;;8.34;100.00;98716.56;5072716;28;20055;-70
2022/12/12 06:03:02;;;;;;;5.60;3.72;;;;;;;8.98;100.00;98801.75;5072576;28;20468;-70
2022/12/12 06:05:28;;;;;;;5.05;3.15;;;;;;;8.75;100.00;98794.25;5071137;28;20092;-69
2022/12/12 06:07:53;;;;;;;3.55;3.10;;;;;;;7.96;100.00;98720.53;5055037;28;20135;-70
2022/12/12 06:10:18;;;;;;;4.88;2.55;;;;;;;8.43;100.00;98823.38;5052619;28;20476;-70
2022/12/12 06:12:44;;;;;;;19.85;14.98;;;;;;;8.55;100.00;98774.78;5051132;28;20119;-70
2022/12/12 06:15:09;;;;;;;19.02;14.60;;;;;;;8.12;100.00;98735.97;5052640;28;20463;-70
2022/12/12 06:17:35;;;;;;;30.90;25.73;;;;;;;8.53;100.00;98756.28;5052670;28;20239;-70
2022/12/12 06:20:01;;;;;;;22.58;19.40;;;;;;;9.15;100.00;98831.50;5051820;28;20059;-70
2022/12/12 06:22:26;;;;;;;15.18;13.55;;;;;;;9.15;100.00;98839.09;5052113;28;20033;-70
2022/12/12 06:24:51;;;;;;;13.82;12.30;;;;;;;8.62;100.00;98755.91;5052142;28;20033;-70
2022/12/12 06:27:17;;;;;;;8.52;5.70;;;;;;;8.51;100.00;98747.09;5064829;28;20040;-70
2022/12/12 06:29:42;;;;;;;8.90;5.40;;;;;;;8.95;100.00;98751.19;5071928;28;20028;-69
2022/12/12 06:32:08;;;;;;;6.97;5.22;;;;;;;9.19;100.00;98785.66;5072733;28;20716;-70
2022/12/12 06:34:33;;;;;;;7.22;6.20;;;;;;;9.80;100.00;98829.53;5072433;28;20032;-69
2022/12/12 06:36:59;;;;;;;5.60;4.68;;;;;;;8.93;100.00;98730.16;5071708;28;20036;-69
2022/12/12 06:39:24;;;;;;;6.45;5.32;;;;;;;9.58;100.00;98836.41;5071682;28;20041;-69
2022/12/12 06:41:50;;;;;;;7.35;5.90;;;;;;;9.70;100.00;98851.13;5071841;28;20032;-69
2022/12/12 06:44:15;;;;;;;9.27;6.50;;;;;;;9.75;100.00;98773.06;5073047;28;20078;-72
2022/12/12 06:46:41;;;;;;;11.65;8.48;;;;;;;9.71;100.00;98720.81;5072338;28;20063;-71
2022/12/12 06:49:08;;;;;;;10.95;8.13;;;;;;;10.31;100.00;98718.03;5071654;28;20544;-70
2022/12/12 06:51:37;;;;;;;14.55;11.60;;;;;;;11.28;100.00;98870.94;5071308;28;20410;-69
2022/12/12 06:54:03;;;;;;;9.45;8.05;;;;;;;12.25;100.00;98904.22;5071807;28;20024;-70
2022/12/12 06:56:29;;;;;;;12.15;9.75;;;;;;;11.64;100.00;98769.03;5071474;28;20025;-70
2022/12/12 06:58:56;;;;;;;12.48;9.57;;;;;;;10.60;100.00;98916.59;5070473;28;20108;-70
2022/12/12 07:01:23;;;;;;;12.10;9.75;;;;;;;9.85;100.00;98924.06;5071719;28;20542;-70
2022/12/12 07:03:49;;;;;;;11.48;9.25;;;;;;;9.50;100.00;98912.00;5071564;28;20106;-70
2022/12/12 07:06:16;;;;;;;9.90;7.65;;;;;;;9.55;100.00;98905.03;5070936;28;20043;-70
2022/12/12 07:08:42;;;;;;;9.93;8.20;;;;;;;9.28;100.00;98880.81;5071461;28;20025;-70
2022/12/12 07:11:14;;;;;;;9.57;7.28;;;;;;;8.90;100.00;98853.63;5062595;28;20073;-71
2022/12/12 07:13:39;;;;;;;10.88;8.15;;;;;;;9.41;100.00;98905.59;5070694;28;20560;-70
2022/12/12 07:16:06;;;;;;;9.15;7.45;;;;;;;9.63;100.00;98921.59;5071417;28;20028;-70
2022/12/12 07:18:31;;;;;;;11.45;8.90;;;;;;;9.56;100.00;98859.31;5071178;28;20059;-70
2022/12/12 07:20:57;;;;;;;15.20;8.95;;;;;;;9.81;100.00;98904.78;5069918;28;20032;-70
2022/12/12 07:23:22;;;;;;;9.63;7.15;;;;;;;9.72;100.00;98917.88;5070615;28;20069;-70
2022/12/12 07:25:48;;;;;;;8.35;6.93;;;;;;;9.07;100.00;98852.06;5070937;28;20503;-70
2022/12/12 07:28:14;;;;;;;8.93;7.13;;;;;;;9.98;100.00;98940.41;5070817;28;20056;-71
2022/12/12 07:30:42;;;;;;;33.08;25.33;;;;;;;9.93;100.00;98933.88;5068504;28;20556;-69
2022/12/12 07:33:08;;;;;;;37.08;25.08;;;;;;;9.91;100.00;98938.19;5061977;28;20033;-70
2022/12/12 07:35:34;;;;;;;14.90;9.45;;;;;;;9.23;100.00;98864.97;5051325;28;20078;-70
2022/12/12 07:38:00;;;;;;;23.13;15.90;;;;;;;9.15;100.00;98860.19;5050335;28;20507;-70
2022/12/12 07:40:26;;;;;;;17.65;12.45;;;;;;;9.19;100.00;98899.72;5050214;28;20040;-70
2022/12/12 07:42:51;;;;;;;19.02;15.20;;;;;;;9.07;100.00;98866.47;5050688;28;20110;-69
2022/12/12 07:45:16;;;;;;;22.75;17.35;;;;;;;9.32;100.00;98938.13;5057777;28;20037;-72
2022/12/12 07:47:42;;;;;;;17.50;13.30;;;;;;;10.13;100.00;98939.81;5080980;28;20031;-70
2022/12/12 07:50:08;;;;;;;13.88;8.55;;;;;;;9.33;100.00;98943.13;5090476;28;20028;-68
2022/12/12 07:52:33;;;;;;;9.13;5.90;;;;;;;9.40;100.00;98969.06;5090776;28;20450;-69
2022/12/12 07:55:00;;;;;;;9.85;5.15;;;;;;;8.96;100.00;98983.47;5090534;28;20024;-69
2022/12/12 07:57:25;;;;;;;14.15;5.00;;;;;;;9.06;100.00;98978.88;5090520;28;20032;-68
2022/12/12 07:59:50;;;;;;;8.63;4.85;;;;;;;8.64;100.00;98908.66;5090310;28;20032;-68
2022/12/12 08:02:16;;;;;;;11.52;5.30;;;;;;;8.89;100.00;98973.63;5090362;28;20024;-70
2022/12/12 08:04:41;;;;;;;11.85;6.07;;;;;;;8.91;100.00;98921.16;5090634;28;20115;-69
2022/12/12 08:07:07;;;;;;;15.93;9.00;;;;;;;9.14;100.00;98909.25;5089773;28;20530;-69
2022/12/12 08:09:32;;;;;;;14.32;8.93;;;;;;;9.20;100.00;98920.84;5090287;28;20358;-68
2022/12/12 08:11:58;;;;;;;18.08;9.13;;;;;;;9.37;100.00;98936.22;5090571;28;20035;-68
2022/12/12 08:14:25;;;;;;;16.92;8.50;;;;;;;9.16;100.00;98977.63;5090566;28;20028;-68
2022/12/12 08:16:51;;;;;;;12.90;7.97;;;;;;;9.35;100.00;98927.84;5090029;28;20057;-68
2022/12/12 08:19:16;;;;;;;15.15;10.02;;;;;;;9.29;100.00;98992.31;5090045;28;20080;-68
2022/12/12 08:21:42;;;;;;;12.73;7.15;;;;;;;9.52;100.00;99021.88;5090134;28;20519;-67
2022/12/12 08:24:11;;;;;;;11.70;6.97;;;;;;;9.40;100.00;98926.78;5090155;28;20036;-67
2022/12/12 08:26:37;;;;;;;10.30;5.40;;;;;;;9.73;100.00;98971.94;5089740;28;20040;-68
2022/12/12 08:29:03;;;;;;;6.32;4.68;;;;;;;10.09;100.00;98980.59;5090251;28;20548;-68
2022/12/12 08:31:29;;;;;;;10.27;5.72;;;;;;;10.01;100.00;98945.38;5090106;28;20406;-67
2022/12/12 08:33:55;;;;;;;10.70;5.97;;;;;;;10.50;100.00;99015.25;5090034;28;20043;-67
2022/12/12 08:36:23;;;;;;;29.38;21.58;;;;;;;10.00;100.00;99007.19;5090507;28;20058;-69
2022/12/12 08:38:49;;;;;;;10.90;6.75;;;;;;;10.37;100.00;98998.88;5089867;28;20039;-67
2022/12/12 08:41:15;;;;;;;14.98;6.80;;;;;;;10.11;100.00;99016.94;5090124;28;20073;-68
2022/12/12 08:43:41;;;;;;;12.43;6.22;;;;;;;9.73;100.00;98937.25;5092868;28;20039;-67
2022/12/12 08:46:08;;;;;;;8.40;4.70;;;;;;;10.30;100.00;99030.53;5093969;28;20035;-68
2022/12/12 08:48:33;;;;;;;12.48;9.02;;;;;;;9.17;100.00;98951.41;5094632;28;20031;-69
2022/12/12 08:50:59;;;;;;;8.40;5.70;;;;;;;10.17;100.00;98959.09;5094461;28;20046;-72
2022/12/12 08:53:26;;;;;;;12.35;5.10;;;;;;;10.86;100.00;99011.09;5095222;28;20101;-72
2022/12/12 08:55:51;;;;;;;13.35;4.35;;;;;;;10.40;100.00;98941.16;5094410;28;20440;-70
2022/12/12 08:58:17;;;;;;;9.27;4.63;;;;;;;11.09;100.00;99022.78;5094635;28;20031;-70
2022/12/12 09:00:42;;;;;;;10.93;4.53;;;;;;;10.33;100.00;98913.53;5093479;28;20052;-69
2022/12/12 09:03:08;;;;;;;6.50;4.50;;;;;;;10.62;100.00;98973.25;5093933;28;20058;-69
2022/12/12 09:05:33;;;;;;;8.43;5.10;;;;;;;11.21;100.00;99009.50;5093930;28;20119;-68
2022/12/12 09:07:59;;;;;;;9.15;4.03;;;;;;;10.48;100.00;98918.75;5093861;28;20036;-68
2022/12/12 09:10:26;;;;;;;11.27;4.05;;;;;;;10.58;100.00;99030.97;5093547;28;20039;-68
2022/12/12 09:12:52;;;;;;;11.68;5.95;;;;;;;10.78;100.00;99019.94;5090482;28;20470;-69
2022/12/12 09:15:17;;;;;;;20.67;11.82;;;;;;;10.24;100.00;98945.25;5093269;28;20116;-69
2022/12/12 09:17:42;;;;;;;6.55;4.10;;;;;;;10.36;100.00;98972.66;5092042;28;20028;-70
2022/12/12 09:20:08;;;;;;;4.40;2.90;;;;;;;10.73;100.00;99010.00;5092377;28;20384;-71
2022/12/12 09:22:34;;;;;;;9.57;3.80;;;;;;;10.46;100.00;98999.31;5093659;28;20505;-69
2022/12/12 09:24:59;;;;;;;5.28;3.47;;;;;;;10.88;100.00;99013.56;5093592;28;20020;-68
2022/12/12 09:27:25;;;;;;;7.68;3.20;;;;;;;10.79;100.00;99009.72;5093368;28;20032;-68
2022/12/12 09:29:50;;;;;;;7.03;3.90;;;;;;;11.18;100.00;99010.47;5108902;28;20036;-69
2022/12/12 09:32:16;;;;;;;9.00;5.03;;;;;;;10.64;100.00;98931.59;5083585;28;20033;-68
2022/12/12 09:34:42;;;;;;;5.65;3.50;;;;;;;10.63;100.00;98995.22;5073709;28;20113;-69
2022/12/12 09:37:07;;;;;;;5.65;3.63;;;;;;;10.40;100.00;98925.06;5093087;28;20032;-73
2022/12/12 09:39:32;;;;;;;5.82;4.15;;;;;;;10.96;100.00;99034.38;5093693;28;20059;-71
2022/12/12 09:42:08;;;;;;;7.30;3.80;;;;;;;11.04;100.00;99009.44;5074332;28;20517;-72
2022/12/12 09:44:33;;;;;;;6.43;3.97;;;;;;;10.52;100.00;98926.25;5074053;28;20028;-72
2022/12/12 09:47:06;;;;;;;6.50;4.18;;;;;;;11.27;100.00;99021.91;5072998;28;20656;-72
2022/12/12 09:49:53;;;;;;;6.57;3.88;;;;;;;10.91;100.00;98970.22;5073633;28;20021;-71
2022/12/12 09:52:30;;;;;;;5.70;4.28;;;;;;;10.69;100.00;99020.34;5072852;28;20394;-72
2022/12/12 09:54:57;;;;;;;6.30;4.28;;;;;;;11.02;100.00;99016.31;5072920;28;20032;-72
2022/12/12 09:57:32;;;;;;;7.93;4.32;;;;;;;10.87;100.00;99019.56;5088959;28;20043;-72
2022/12/12 10:00:10;;;;;;;13.57;7.90;;;;;;;11.18;100.00;99004.53;5073141;28;20040;-72
2022/12/12 10:02:59;;;;;;;11.85;7.00;;;;;;;11.55;100.00;99016.38;5073643;28;20491;-73
2022/12/12 10:05:36;;;;;;;10.93;6.75;;;;;;;11.37;100.00;98984.16;5070429;28;20790;-69
2022/12/12 10:08:37;;;;;;;10.80;6.25;;;;;;;11.82;100.00;98951.44;5033279;28;20102;-73
2022/12/12 10:11:48;;;;;;;10.52;7.05;;;;;;;11.44;100.00;98998.25;4620540;28;10000182;-70
2022/12/12 10:13:52;;;;;;;10.70;5.90;;;;;;;11.12;100.00;98934.44;5025818;28;20488;-70
2022/12/12 10:16:18;;;;;;;12.68;6.00;;;;;;;10.97;100.00;98936.88;5029662;28;20135;-69
2022/12/12 10:18:51;;;;;;;9.05;6.07;;;;;;;10.98;100.00;98966.47;5039398;28;20122;-70
2022/12/12 10:21:21;;;;;;;6.95;5.53;;;;;;;11.01;100.00;98940.94;5031618;28;20033;-70
2022/12/12 10:24:03;;;;;;;10.98;7.22;;;;;;;11.44;100.00;98935.44;5049578;28;20025;-70
2022/12/12 10:26:30;;;;;;;10.85;5.60;;;;;;;11.76;100.00;99000.94;5046697;28;20029;-70
2022/12/12 10:29:12;;;;;;;11.13;5.82;;;;;;;11.43;100.00;98938.88;5049578;28;20124;-70
2022/12/12 10:31:46;;;;;;;6.90;4.63;;;;;;;11.48;100.00;99017.56;5031108;28;20399;-69
2022/12/12 10:34:50;;;;;;;43.15;30.60;;;;;;;11.84;100.00;99001.38;5034014;28;20053;-70
2022/12/12 10:37:34;;;;;;;8.75;5.03;;;;;;;11.82;100.00;99005.72;5030414;28;20046;-69
2022/12/12 10:40:32;;;;;;;5.35;2.90;;;;;;;11.44;100.00;98920.19;5028433;28;20029;-70
2022/12/12 10:43:22;;;;;;;6.65;3.08;;;;;;;11.94;100.00;98969.44;5040100;28;20048;-70
2022/12/12 10:46:08;;;;;;;7.18;4.03;;;;;;;12.84;100.00;99003.88;5049140;28;20033;-75
2022/12/12 10:48:34;;;;;;;5.78;3.67;;;;;;;11.85;100.00;98913.91;5051603;28;20031;-74
2022/12/12 10:51:03;;;;;;;9.70;5.50;;;;;;;11.78;100.00;98907.47;5052485;28;20036;-73
2022/12/12 10:53:30;;;;;;;10.75;8.00;;;;;;;11.93;100.00;99005.19;5034603;28;20419;-73
2022/12/12 10:56:02;;;;;;;11.93;6.57;;;;;;;11.58;100.00;98925.44;5052742;28;20041;-74
2022/12/12 10:58:36;;;;;;;8.18;5.55;;;;;;;12.18;100.00;98996.25;5043708;28;20033;-74
2022/12/12 11:01:10;;;;;;;8.90;5.30;;;;;;;12.25;100.00;98960.28;5052699;28;20037;-70
2022/12/12 11:03:46;;;;;;;8.10;4.40;;;;;;;12.30;100.00;98988.91;5046682;28;20041;-70
2022/12/12 11:06:17;;;;;;;9.35;5.55;;;;;;;12.15;100.00;98942.09;5050723;28;20082;-69
2022/12/12 11:08:55;;;;;;;4.40;3.40;;;;;;;12.40;100.00;98998.53;5051489;28;20490;-71
2022/12/12 11:11:25;;;;;;;4.32;3.22;;;;;;;12.28;100.00;98935.44;5032896;28;20527;-70
2022/12/12 11:13:56;;;;;;;3.38;2.38;;;;;;;12.63;100.00;98982.06;5051392;28;20071;-70
2022/12/12 11:16:24;;;;;;;3.67;2.38;;;;;;;12.09;100.00;98927.94;5059701;28;20024;-70
2022/12/12 11:19:03;;;;;;;4.35;2.17;;;;;;;12.33;100.00;98996.38;5050232;28;20400;-70
2022/12/12 11:21:32;;;;;;;4.10;1.88;;;;;;;12.32;100.00;98990.44;5033083;28;20082;-69
2022/12/12 11:24:01;;;;;;;16.60;9.88;;;;;;;12.67;100.00;98984.38;5033253;28;20033;-70
2022/12/12 11:26:28;;;;;;;14.25;8.43;;;;;;;12.68;100.00;98896.75;5051046;28;20414;-70
2022/12/12 11:29:01;;;;;;;5.63;2.67;;;;;;;12.86;100.00;98986.75;5050982;28;20032;-70
2022/12/12 11:31:30;;;;;;;5.95;3.15;;;;;;;12.80;100.00;98970.06;5033680;28;20041;-71
2022/12/12 11:33:59;;;;;;;8.15;3.80;;;;;;;13.29;100.00;98996.31;5033074;28;20120;-71
2022/12/12 11:36:32;;;;;;;4.13;2.13;;;;;;;12.59;100.00;98963.56;5051407;28;20078;-71
2022/12/12 11:39:00;;;;;;;8.27;3.95;;;;;;;12.54;100.00;98929.00;5051517;28;20029;-71
2022/12/12 11:41:25;;;;;;;3.95;1.90;;;;;;;12.72;100.00;98968.81;5051184;28;20068;-71
2022/12/12 11:43:58;;;;;;;5.78;2.33;;;;;;;12.93;100.00;98968.50;5051489;28;20033;-73
2022/12/12 11:46:31;;;;;;;3.17;1.02;;;;;;;12.13;100.00;98896.31;5051846;28;20036;-73
2022/12/12 11:49:02;;;;;;;2.83;2.10;;;;;;;12.45;100.00;98911.63;5050942;28;20041;-73
2022/12/12 11:51:44;;;;;;;;;;;;;;;12.87;100.00;99012.22;5048518;28;20538;-72
2022/12/12 11:54:20;;;;;;;5.80;2.35;;;;;;;13.00;100.00;99003.00;5031632;28;19960;-72
2022/12/12 11:57:11;;;;;;;4.85;2.15;;;;;;;13.24;100.00;99000.88;5031639;28;20522;-73